Time;durP1;ratioP1;P1;durP2;ratioP2;P2;SDS_P1;SDS_P2;PMS_P1;PMS_P2;Temp;Humidity;BMP_temperature;BMP_pressure;BME280_temperature;BME280_humidity;BME280_pressure;Samples;Min_cycle;Max_cycle;Signal;HPM_P1;HPM_P2
2022/05/21 00:00:23;;;;;;;16.20;9.15;;;;;;;;;;5116178;27;20947;-70
2022/05/21 00:02:50;;;;;;;17.98;10.65;;;10.80;99.90;;;;;;5112886;27;20423;-70
2022/05/21 00:05:17;;;;;;;15.60;9.18;;;;;;;;;;5129637;27;20417;-70
2022/05/21 00:07:43;;;;;;;17.65;10.90;;;;;;;;;;5129016;27;20421;-70
2022/05/21 00:10:12;;;;;;;18.20;11.45;;;;;;;;;;5121221;27;20421;-70
2022/05/21 00:12:38;;;;;;;25.65;11.57;;;;;;;;;;5127700;27;20431;-71
2022/05/21 00:15:05;;;;;;;27.42;13.00;;;;;;;;;;5119344;27;20454;-70
2022/05/21 00:17:31;;;;;;;24.52;13.15;;;10.60;99.90;;;;;;5138621;27;20401;-70
2022/05/21 00:19:56;;;;;;;24.88;14.13;;;10.70;99.90;;;;;;5107094;28;20851;-70
2022/05/21 00:22:22;;;;;;;25.55;13.60;;;;;;;;;;5131145;27;20417;-70
2022/05/21 00:24:49;;;;;;;22.08;13.60;;;;;;;;;;5091063;28;20428;-70
2022/05/21 00:27:15;;;;;;;29.30;15.23;;;;;;;;;;5139366;28;20433;-71
2022/05/21 00:29:41;;;;;;;27.75;15.05;;;;;;;;;;5119361;28;20439;-70
2022/05/21 00:32:07;;;;;;;34.20;17.10;;;;;;;;;;5104780;28;20430;-69
2022/05/21 00:34:34;;;;;;;26.63;15.85;;;;;;;;;;5120999;28;20428;-70
2022/05/21 00:37:01;;;;;;;34.60;17.30;;;;;;;;;;5126731;28;20413;-69
2022/05/21 00:39:27;;;;;;;34.25;18.27;;;;;;;;;;5101878;28;20445;-69
2022/05/21 00:41:54;;;;;;;32.20;18.70;;;;;;;;;;5115447;28;20404;-70
2022/05/21 00:44:20;;;;;;;29.33;18.20;;;;;;;;;;5119713;28;20453;-69
2022/05/21 00:46:48;;;;;;;36.70;20.00;;;10.90;99.90;;;;;;5133241;28;20418;-70
2022/05/21 00:49:26;;;;;;;34.70;19.20;;;10.80;99.90;;;;;;5140662;27;20395;-70
2022/05/21 00:51:55;;;;;;;40.22;21.90;;;;;;;;;;5095181;27;20422;-70
2022/05/21 00:54:23;;;;;;;33.70;21.92;;;;;;;;;;5133606;27;20881;-70
2022/05/21 00:56:51;;;;;;;40.58;21.90;;;;;;;;;;5121789;27;20939;-70
2022/05/21 01:02:06;;;;;;;39.47;23.70;;;11.00;99.90;;;;;;5115919;27;20407;-70
2022/05/21 01:04:33;;;;;;;43.53;25.30;;;;;;;;;;5109787;28;20514;-69
2022/05/21 01:07:00;;;;;;;49.92;26.45;;;;;;;;;;5129284;27;20433;-70
2022/05/21 01:09:26;;;;;;;46.72;26.20;;;10.70;99.90;;;;;;5134832;27;20418;-69
2022/05/21 01:11:53;;;;;;;47.40;26.85;;;;;;;;;;5137264;27;20435;-70
2022/05/21 01:14:20;;;;;;;45.70;27.05;;;;;;;;;;5116084;27;20493;-70
2022/05/21 01:16:47;;;;;;;48.03;28.83;;;;;;;;;;5140170;27;20754;-70
2022/05/21 01:19:13;;;;;;;47.05;28.73;;;;;;;;;;5134529;27;20442;-70
2022/05/21 01:21:40;;;;;;;52.55;29.63;;;;;;;;;;5119325;27;20398;-70
2022/05/21 01:24:06;;;;;;;48.28;30.73;;;;;;;;;;5115705;28;20436;-69
2022/05/21 01:26:33;;;;;;;57.75;31.33;;;;;;;;;;5125039;27;20437;-70
2022/05/21 01:29:00;;;;;;;57.35;32.35;;;;;;;;;;5103051;28;20808;-69
2022/05/21 01:31:26;;;;;;;62.97;34.25;;;;;;;;;;5123161;27;20414;-78
2022/05/21 01:33:52;;;;;;;66.63;34.47;;;;;;;;;;5124201;27;20480;-74
2022/05/21 01:36:18;;;;;;;89.90;37.10;;;;;;;;;;5121769;27;20397;-76
2022/05/21 01:38:45;;;;;;;78.68;40.78;;;11.60;99.90;;;;;;5111282;27;20494;-73
2022/05/21 01:41:12;;;;;;;68.68;38.97;;;;;;;;;;5117126;27;20445;-73
2022/05/21 01:46:24;;;;;;;74.07;41.70;;;;;;;;;;5130930;27;20431;-72
2022/05/21 01:48:50;;;;;;;87.32;42.42;;;;;;;;;;5104560;28;20407;-72
2022/05/21 01:51:16;;;;;;;82.25;44.00;;;;;;;;;;5128318;27;20411;-72
2022/05/21 01:53:43;;;;;;;76.38;43.00;;;;;;;;;;5129421;27;20852;-71
2022/05/21 01:56:09;;;;;;;79.82;44.25;;;;;;;;;;5116923;27;20497;-71
2022/05/21 01:58:36;;;;;;;77.43;40.95;;;;;;;;;;5123705;27;20411;-71
2022/05/21 02:01:02;;;;;;;76.40;42.03;;;11.70;99.90;;;;;;5129576;27;20452;-71
2022/05/21 02:03:28;;;;;;;79.25;42.78;;;11.70;99.90;;;;;;5132282;27;20426;-71
2022/05/21 02:05:54;;;;;;;86.43;43.73;;;;;;;;;;5117330;27;20414;-70
2022/05/21 02:08:20;;;;;;;80.23;45.27;;;;;;;;;;5121730;27;20507;-70
2022/05/21 02:10:46;;;;;;;81.05;43.40;;;;;;;;;;5126811;27;20430;-70
2022/05/21 02:13:14;;;;;;;79.30;42.20;;;;;;;;;;5118957;27;20404;-70
2022/05/21 02:15:41;;;;;;;75.43;40.63;;;;;;;;;;5129995;27;20423;-70
2022/05/21 02:18:07;;;;;;;69.80;40.20;;;;;;;;;;5086470;28;20491;-70
2022/05/21 02:20:33;;;;;;;75.03;40.53;;;;;;;;;;5117898;27;20434;-70
2022/05/21 02:22:59;;;;;;;73.88;39.63;;;;;;;;;;5139464;27;20442;-70
2022/05/21 02:25:25;;;;;;;74.43;40.42;;;12.30;99.90;;;;;;5134239;27;20414;-69
2022/05/21 02:27:51;;;;;;;76.20;38.65;;;;;;;;;;5131146;27;20407;-70
2022/05/21 02:30:17;;;;;;;71.05;37.72;;;;;;;;;;5099522;28;20450;-69
2022/05/21 02:32:43;;;;;;;66.15;35.53;;;;;;;;;;5128448;27;20414;-69
2022/05/21 02:35:09;;;;;;;54.75;30.98;;;12.40;99.90;;;;;;5110415;27;20486;-69
2022/05/21 02:40:20;;;;;;;49.03;25.80;;;;;;;;;;5099807;28;20442;-68
2022/05/21 02:42:46;;;;;;;46.38;22.92;;;;;;;;;;5129993;27;20433;-69
2022/05/21 02:45:18;;;;;;;45.50;17.73;;;;;;;;;;5121182;27;20912;-68
2022/05/21 02:47:44;;;;;;;34.10;15.47;;;;;;;;;;5121973;27;20425;-68
2022/05/21 02:50:11;;;;;;;37.13;14.98;;;;;;;;;;5108405;28;20419;-69
2022/05/21 02:52:37;;;;;;;33.60;14.23;;;12.80;99.90;;;;;;5118754;28;20415;-68
2022/05/21 02:55:04;;;;;;;27.73;12.27;;;;;;;;;;5136058;27;20394;-68
2022/05/21 02:57:31;;;;;;;32.47;12.38;;;;;;;;;;5116953;28;20400;-68
2022/05/21 03:00:00;;;;;;;29.35;12.00;;;;;;;;;;5106863;28;20485;-68
2022/05/21 03:02:27;;;;;;;33.47;13.02;;;;;;;;;;5100913;28;20478;-68
2022/05/21 03:04:54;;;;;;;32.95;11.65;;;;;;;;;;5132110;27;20410;-68
2022/05/21 03:07:20;;;;;;;27.58;10.95;;;;;;;;;;5125928;27;21009;-68
2022/05/21 03:12:31;;;;;;;29.05;11.65;;;;;;;;;;5141528;27;20398;-67
2022/05/21 03:14:57;;;;;;;34.50;13.43;;;;;;;;;;5117165;28;20420;-68
2022/05/21 03:17:26;;;;;;;31.13;13.00;;;;;;;;;;5123680;27;20414;-68
2022/05/21 03:19:52;;;;;;;29.37;10.93;;;;;;;;;;5140155;27;20406;-68
2022/05/21 03:22:18;;;;;;;29.40;11.32;;;;;;;;;;5135118;27;20450;-67
2022/05/21 03:24:44;;;;;;;30.95;10.95;;;12.50;99.90;;;;;;5128259;27;20426;-68
2022/05/21 03:27:10;;;;;;;32.13;10.13;;;;;;;;;;5140228;27;20391;-68
2022/05/21 03:29:37;;;;;;;32.47;10.55;;;;;;;;;;5141296;27;20399;-68
2022/05/21 03:32:03;;;;;;;27.08;10.00;;;;;;;;;;5122821;27;20426;-68
2022/05/21 03:34:30;;;;;;;25.23;9.77;;;;;;;;;;5137555;27;20466;-67
2022/05/21 03:36:56;;;;;;;30.55;9.60;;;;;;;;;;5119912;28;20408;-68
2022/05/21 03:39:23;;;;;;;29.98;9.00;;;;;;;;;;5118537;28;20912;-68
2022/05/21 03:41:49;;;;;;;24.08;8.65;;;;;;;;;;5120805;27;20427;-68
2022/05/21 03:44:15;;;;;;;29.45;9.00;;;;;;;;;;5097743;28;20426;-68
2022/05/21 03:46:41;;;;;;;22.70;8.80;;;;;;;;;;5122808;27;20419;-68
2022/05/21 03:49:08;;;;;;;29.50;8.95;;;;;;;;;;5134068;27;20447;-68
2022/05/21 03:51:34;;;;;;;27.45;8.27;;;13.00;99.90;;;;;;5134229;27;20417;-68
2022/05/21 03:54:00;;;;;;;28.92;8.63;;;;;;;;;;5141231;27;20403;-69
2022/05/21 03:56:26;;;;;;;24.48;8.40;;;;;;;;;;5127038;27;20425;-69
2022/05/21 03:58:52;;;;;;;24.67;8.05;;;;;;;;;;5137105;27;20410;-69
2022/05/21 04:01:18;;;;;;;26.30;7.13;;;;;;;;;;5140804;27;20422;-69
2022/05/21 04:03:43;;;;;;;23.02;6.80;;;13.00;99.90;;;;;;5117814;27;20412;-69
2022/05/21 04:06:11;;;;;;;19.40;6.55;;;;;;;;;;5122650;27;20403;-68
2022/05/21 04:08:37;;;;;;;23.48;6.93;;;13.20;99.90;;;;;;5132912;27;20427;-69
2022/05/21 04:11:03;;;;;;;26.23;6.47;;;;;;;;;;5108559;28;20414;-69
2022/05/21 04:13:29;;;;;;;19.73;6.18;;;;;;;;;;5098712;28;20415;-69
2022/05/21 04:15:56;;;;;;;18.08;6.15;;;;;;;;;;5079099;27;20415;-69
2022/05/21 04:18:22;;;;;;;15.88;5.90;;;;;;;;;;5140139;27;20394;-68
2022/05/21 04:20:48;;;;;;;16.20;5.53;;;;;;;;;;5128404;27;20445;-68
2022/05/21 04:23:14;;;;;;;13.93;5.20;;;;;;;;;;5120100;28;20474;-68
2022/05/21 04:25:42;;;;;;;15.70;5.67;;;;;;;;;;5114711;28;20626;-68
2022/05/21 04:28:08;;;;;;;16.70;5.22;;;;;;;;;;5102427;28;20815;-68
2022/05/21 04:30:35;;;;;;;19.10;5.38;;;;;;;;;;5114656;28;20472;-68
2022/05/21 04:33:01;;;;;;;19.23;5.03;;;;;;;;;;5106805;28;20438;-69
2022/05/21 04:36:17;;;;;;;14.87;4.87;;;;;;;;;;5133191;28;20426;-69
2022/05/21 04:38:15;;;;;;;17.10;5.00;;;;;;;;;;5104963;28;20515;-69
2022/05/21 04:40:42;;;;;;;17.23;5.32;;;;;;;;;;5124858;28;20410;-68
2022/05/21 04:43:08;;;;;;;15.63;5.18;;;;;;;;;;5138683;27;20406;-69
2022/05/21 04:45:33;;;;;;;18.35;4.70;;;13.00;99.90;;;;;;5128501;28;20422;-70
2022/05/21 04:48:06;;;;;;;13.95;4.68;;;;;;;;;;5130399;27;20487;-69
2022/05/21 04:50:34;;;;;;;17.40;5.07;;;;;;;;;;5126317;28;20423;-69
2022/05/21 04:53:00;;;;;;;16.25;5.15;;;;;;;;;;5125853;28;20417;-69
2022/05/21 04:55:26;;;;;;;15.10;4.68;;;;;;;;;;5124561;28;20445;-69
2022/05/21 04:57:52;;;;;;;16.92;4.80;;;;;;;;;;5131132;28;20413;-69
2022/05/21 05:00:18;;;;;;;14.27;4.70;;;13.20;99.90;;;;;;5115558;28;20424;-69
2022/05/21 05:02:45;;;;;;;16.83;4.13;;;;;;;;;;5102088;28;20443;-69
2022/05/21 05:05:12;;;;;;;15.15;4.18;;;;;;;;;;5121495;28;20447;-69
2022/05/21 05:07:38;;;;;;;13.25;4.30;;;;;;;;;;5135075;28;20486;-69
2022/05/21 05:10:05;;;;;;;16.80;4.72;;;;;;;;;;5097053;28;20505;-69
2022/05/21 05:12:32;;;;;;;16.30;4.57;;;;;;;;;;5097808;28;20459;-69
2022/05/21 05:14:58;;;;;;;16.95;4.65;;;;;;;;;;5104820;28;20499;-68
2022/05/21 05:17:24;;;;;;;16.13;4.15;;;;;;;;;;5104266;28;20432;-67
2022/05/21 05:19:54;;;;;;;14.75;3.85;;;;;;;;;;5101255;28;20392;-69
2022/05/21 05:22:20;;;;;;;16.75;3.90;;;;;;;;;;5123768;28;20426;-69
2022/05/21 05:24:46;;;;;;;12.38;3.80;;;;;;;;;;5106804;28;20471;-69
2022/05/21 05:27:12;;;;;;;15.55;4.28;;;;;;;;;;5137201;28;20399;-69
2022/05/21 05:29:38;;;;;;;12.43;3.70;;;13.40;99.90;;;;;;5121537;28;21001;-68
2022/05/21 05:32:05;;;;;;;14.10;4.00;;;;;;;;;;5137263;28;20441;-68
2022/05/21 05:34:31;;;;;;;16.10;3.83;;;;;;;;;;5116731;28;20419;-68
2022/05/21 05:36:57;;;;;;;14.57;3.70;;;;;;;;;;5135598;28;20399;-68
2022/05/21 05:39:23;;;;;;;14.82;4.20;;;;;;;;;;5111191;28;20526;-68
2022/05/21 05:41:50;;;;;;;13.30;3.87;;;;;;;;;;5119702;27;20420;-69
2022/05/21 05:44:16;;;;;;;14.53;3.97;;;;;;;;;;5104605;28;20943;-68
2022/05/21 05:46:42;;;;;;;16.45;4.50;;;;;;;;;;5121137;27;20411;-68
2022/05/21 05:49:08;;;;;;;16.35;4.47;;;;;;;;;;5140088;27;20431;-69
2022/05/21 05:51:35;;;;;;;15.52;4.05;;;;;;;;;;5129496;27;20829;-69
2022/05/21 05:54:01;;;;;;;15.90;3.77;;;;;;;;;;5122032;27;20426;-69
2022/05/21 05:56:27;;;;;;;14.43;4.00;;;13.60;99.90;;;;;;5134662;27;20423;-69
2022/05/21 06:01:37;;;;;;;14.82;4.30;;;;;;;;;;5143116;27;20399;-69
2022/05/21 06:04:04;;;;;;;15.52;4.45;;;;;;;;;;5128885;27;20427;-70
2022/05/21 06:06:31;;;;;;;16.00;3.80;;;;;;;;;;5130913;27;20553;-70
2022/05/21 06:08:57;;;;;;;13.82;3.90;;;;;;;;;;5142300;27;20407;-70
2022/05/21 06:11:23;;;;;;;17.13;4.47;;;;;;;;;;5139053;27;20411;-70
2022/05/21 06:13:50;;;;;;;13.68;4.05;;;;;;;;;;5115456;27;20413;-70
2022/05/21 06:16:16;;;;;;;15.13;4.07;;;;;;;;;;5111840;27;20468;-70
2022/05/21 06:18:42;;;;;;;16.27;3.97;;;;;;;;;;5083367;28;20441;-70
2022/05/21 06:21:09;;;;;;;16.50;4.30;;;;;;;;;;5133439;27;20418;-70
2022/05/21 06:23:35;;;;;;;13.45;3.90;;;;;;;;;;5130882;27;20432;-70
2022/05/21 06:26:02;;;;;;;16.77;4.30;;;13.90;99.90;;;;;;5117938;28;20417;-70
2022/05/21 06:28:28;;;;;;;16.85;4.10;;;;;;;;;;5120353;27;20433;-70
2022/05/21 06:30:55;;;;;;;15.32;4.75;;;;;;;;;;5096168;28;20469;-70
2022/05/21 06:33:24;;;;;;;13.85;4.25;;;;;;;;;;5101766;27;20432;-71
2022/05/21 06:36:01;;;;;;;13.20;3.80;;;;;;;;;;5128179;27;20423;-70
2022/05/21 06:38:27;;;;;;;14.05;3.85;;;;;;;;;;5135115;27;20789;-70
2022/05/21 06:40:53;;;;;;;12.07;3.67;;;;;;;;;;5124868;27;20451;-70
2022/05/21 06:43:21;;;;;;;14.57;3.30;;;;;;;;;;5106047;28;20459;-70
2022/05/21 06:45:46;;;;;;;15.55;3.85;;;14.40;99.90;;;;;;5119522;27;20943;-70
2022/05/21 06:48:13;;;;;;;16.50;4.10;;;;;;;;;;5115594;27;20568;-70
2022/05/21 06:50:39;;;;;;;13.70;3.47;;;;;;;;;;5118653;27;20662;-70
2022/05/21 06:53:05;;;;;;;12.43;3.50;;;;;;;;;;5116061;28;20460;-70
2022/05/21 06:55:31;;;;;;;16.42;5.13;;;;;;;;;;5102074;28;20405;-70
2022/05/21 06:57:58;;;;;;;11.77;3.35;;;;;;;;;;5102802;28;20397;-70
2022/05/21 07:00:24;;;;;;;13.23;3.50;;;;;;;;;;5128319;27;20414;-69
2022/05/21 07:02:51;;;;;;;13.30;3.42;;;14.40;99.90;;;;;;5135046;27;20487;-70
2022/05/21 07:08:05;;;;;;;12.00;3.28;;;;;;;;;;5117207;27;20820;-70
2022/05/21 07:10:31;;;;;;;11.75;3.33;;;15.00;99.90;;;;;;5125505;27;20412;-71
2022/05/21 07:12:58;;;;;;;12.50;3.20;;;;;;;;;;5127415;27;20418;-70
2022/05/21 07:15:24;;;;;;;13.50;3.70;;;;;;;;;;5131925;27;20414;-71
2022/05/21 07:17:50;;;;;;;12.95;3.50;;;;;;;;;;5121371;27;20436;-71
2022/05/21 07:20:19;;;;;;;14.30;3.60;;;;;;;;;;5133694;27;20434;-71
2022/05/21 07:22:46;;;;;;;12.85;3.38;;;;;;;;;;5133222;27;20422;-71
2022/05/21 07:25:13;;;;;;;12.52;3.33;;;;;;;;;;5113956;27;20410;-70
2022/05/21 07:27:40;;;;;;;17.33;3.95;;;;;;;;;;5106966;27;20612;-71
2022/05/21 07:30:07;;;;;;;13.27;3.78;;;;;;;;;;5137982;27;20421;-71
2022/05/21 07:32:33;;;;;;;13.30;4.15;;;15.30;99.90;;;;;;5135778;27;20426;-70
2022/05/21 07:35:05;;;;;;;13.32;3.97;;;;;;;;;;5132934;27;20674;-71
2022/05/21 07:37:31;;;;;;;13.07;3.78;;;;;;;;;;5130118;27;20459;-71
2022/05/21 07:39:57;;;;;;;12.05;3.55;;;;;;;;;;5120313;27;20781;-71
2022/05/21 07:42:23;;;;;;;12.30;3.53;;;;;;;;;;5118220;27;20976;-71
2022/05/21 07:44:50;;;;;;;12.68;3.13;;;;;;;;;;5107253;28;20417;-71
2022/05/21 07:47:16;;;;;;;8.68;2.95;;;;;;;;;;5086693;28;20475;-71
2022/05/21 07:49:42;;;;;;;12.93;3.45;;;;;;;;;;5126201;27;20416;-71
2022/05/21 07:52:09;;;;;;;15.05;3.67;;;;;;;;;;5132304;27;21292;-71
2022/05/21 07:54:35;;;;;;;14.00;3.70;;;;;;;;;;5134772;27;20510;-71
2022/05/21 07:57:02;;;;;;;11.70;3.75;;;;;;;;;;5107077;27;20406;-70
2022/05/21 07:59:29;;;;;;;11.48;2.90;;;;;;;;;;5116542;28;20474;-70
2022/05/21 08:01:55;;;;;;;13.95;3.35;;;;;;;;;;5115275;28;20524;-71
2022/05/21 08:04:21;;;;;;;10.95;3.10;;;;;;;;;;5103403;28;20931;-71
2022/05/21 08:06:47;;;;;;;13.18;3.42;;;;;;;;;;5117019;27;20423;-71
2022/05/21 08:09:13;;;;;;;15.07;3.60;;;;;;;;;;5109156;27;20404;-71
2022/05/21 08:11:39;;;;;;;12.57;3.58;;;;;;;;;;5118194;28;20416;-72
2022/05/21 08:14:06;;;;;;;13.70;3.10;;;;;;;;;;5100225;28;20440;-71
2022/05/21 08:16:32;;;;;;;11.07;3.25;;;;;;;;;;5089131;28;20421;-72
2022/05/21 08:18:58;;;;;;;12.57;3.55;;;15.90;99.90;;;;;;5090669;28;20461;-71
2022/05/21 08:21:24;;;;;;;12.05;3.20;;;;;;;;;;5125412;27;20403;-71
2022/05/21 08:29:35;;;;;;;10.35;3.30;;;;;;;;;;5081003;28;20425;-72
2022/05/21 08:32:02;;;;;;;13.02;3.38;;;;;;;;;;5097058;28;20933;-72
2022/05/21 08:34:28;;;;;;;11.38;3.58;;;;;;;;;;5115812;28;20435;-72
2022/05/21 08:36:55;;;;;;;12.47;3.17;;;;;;;;;;5121767;28;20442;-72
2022/05/21 08:39:21;;;;;;;11.65;3.00;;;;;;;;;;5106029;28;20416;-72
2022/05/21 08:41:53;;;;;;;8.23;2.83;;;;;;;;;;5129977;28;20435;-74
2022/05/21 08:44:19;;;;;;;11.75;3.38;;;;;;;;;;5099016;28;20418;-74
2022/05/21 08:47:04;;;;;;;13.80;3.15;;;;;;;;;;5093811;28;20430;-73
2022/05/21 08:49:33;;;;;;;9.25;3.00;;;;;;;;;;5112687;28;20459;-74
2022/05/21 08:52:03;;;;;;;11.80;3.58;;;;;;;;;;5104407;28;20648;-73
2022/05/21 08:54:37;;;;;;;10.40;3.00;;;;;;;;;;5115035;28;20424;-75
2022/05/21 08:57:04;;;;;;;7.55;2.50;;;;;;;;;;5103485;28;20528;-74
2022/05/21 08:59:32;;;;;;;11.85;2.90;;;;;;;;;;5109374;28;20416;-74
2022/05/21 09:01:58;;;;;;;13.23;3.72;;;17.00;99.90;;;;;;5115976;28;20418;-75
2022/05/21 09:04:26;;;;;;;10.68;2.85;;;;;;;;;;5121268;28;20419;-75
2022/05/21 09:06:58;;;;;;;14.20;3.03;;;;;;;;;;5111360;27;20430;-74
2022/05/21 09:09:24;;;;;;;12.00;3.35;;;;;;;;;;5107946;28;20433;-75
2022/05/21 09:12:14;;;;;;;11.73;2.72;;;;;;;;;;5110349;28;20419;-73
2022/05/21 09:14:43;;;;;;;10.87;3.00;;;;;;;;;;5105373;27;20434;-73
2022/05/21 09:17:14;;;;;;;12.23;3.30;;;;;;;;;;5110957;27;20493;-75
2022/05/21 09:19:40;;;;;;;13.63;3.50;;;;;;;;;;5114259;27;20412;-73
2022/05/21 09:22:09;;;;;;;8.82;3.00;;;;;;;;;;5106835;28;20416;-73
2022/05/21 09:24:46;;;;;;;10.55;2.70;;;;;;;;;;5117063;27;20491;-74
2022/05/21 09:27:32;;;;;;;9.93;2.30;;;;;;;;;;5124641;27;20439;-74
2022/05/21 09:30:17;;;;;;;12.68;2.95;;;;;;;;;;5121686;27;20425;-73
2022/05/21 09:32:46;;;;;;;13.75;3.00;;;;;;;;;;5084580;28;20443;-74
2022/05/21 09:35:18;;;;;;;10.90;2.90;;;17.00;99.90;;;;;;5086875;28;20422;-73
2022/05/21 09:37:45;;;;;;;9.77;2.83;;;;;;;;;;5122675;28;20396;-75
2022/05/21 09:40:31;;;;;;;11.35;3.30;;;;;;;;;;5131849;27;20418;-74
2022/05/21 09:45:43;;;;;;;12.00;3.20;;;;;;;;;;5101174;28;20406;-75
2022/05/21 09:48:09;;;;;;;12.13;4.00;;;;;;;;;;5117522;27;20420;-76
2022/05/21 09:50:51;;;;;;;11.23;2.80;;;;;;;;;;5123182;27;20535;-75
2022/05/21 09:53:27;;;;;;;8.77;2.50;;;;;;;;;;5087560;28;20424;-76
2022/05/21 09:56:01;;;;;;;7.68;2.50;;;17.10;99.90;;;;;;5110009;28;20429;-75
2022/05/21 09:58:27;;;;;;;9.20;2.75;;;;;;;;;;5083999;28;20412;-74
2022/05/21 10:00:56;;;;;;;10.93;2.70;;;16.90;99.90;;;;;;5120148;28;20431;-73
2022/05/21 10:03:38;;;;;;;10.98;2.63;;;;;;;;;;5127946;27;20877;-75
2022/05/21 10:06:14;;;;;;;11.52;2.80;;;;;;;;;;5109934;27;20418;-74
2022/05/21 10:11:28;;;;;;;10.65;2.30;;;;;;;;;;5126330;27;20427;-76
2022/05/21 10:14:01;;;;;;;12.73;2.93;;;;;;;;;;5115034;28;20516;-76
2022/05/21 10:16:27;;;;;;;8.90;2.60;;;;;;;;;;5083358;28;20483;-76
2022/05/21 10:19:12;;;;;;;9.10;2.30;;;;;;;;;;5084266;28;20520;-74
2022/05/21 10:21:44;;;;;;;9.48;2.03;;;;;;;;;;5099410;28;20417;-73
2022/05/21 10:24:37;;;;;;;7.32;2.17;;;;;;;;;;5100993;27;20426;-74
2022/05/21 10:27:23;;;;;;;9.20;2.00;;;;;;;;;;5137668;27;20407;-75
2022/05/21 10:29:56;;;;;;;9.38;2.63;;;;;;;;;;5091840;28;20418;-76
2022/05/21 10:32:28;;;;;;;10.80;2.50;;;;;;;;;;5102017;28;20438;-75
2022/05/21 10:35:02;;;;;;;10.40;2.22;;;;;;;;;;5096788;27;20422;-74
2022/05/21 10:37:31;;;;;;;10.23;2.80;;;;;;;;;;5102889;28;20431;-75
2022/05/21 10:40:10;;;;;;;7.45;2.10;;;;;;;;;;5112308;27;20434;-75
2022/05/21 10:42:39;;;;;;;9.17;2.07;;;;;;;;;;5115963;28;20442;-75
2022/05/21 10:45:20;;;;;;;10.00;2.70;;;;;;;;;;5118203;28;20420;-74
2022/05/21 10:47:56;;;;;;;9.20;2.50;;;;;;;;;;5117249;27;20418;-75
2022/05/21 10:50:36;;;;;;;7.63;2.35;;;17.70;99.90;;;;;;5129672;27;20444;-76
2022/05/21 10:53:12;;;;;;;7.95;2.20;;;;;;;;;;5100887;27;20414;-74
2022/05/21 10:55:45;;;;;;;9.13;2.40;;;;;;;;;;5098106;28;20485;-74
2022/05/21 10:58:33;;;;;;;8.10;2.33;;;17.40;99.90;;;;;;5116547;27;20460;-74
2022/05/21 11:01:03;;;;;;;7.93;2.23;;;;;;;;;;5124221;27;20491;-74
2022/05/21 11:03:35;;;;;;;10.43;2.85;;;;;;;;;;5131870;27;20434;-75
2022/05/21 11:06:20;;;;;;;9.65;2.38;;;;;;;;;;5123294;27;20477;-74
2022/05/21 11:08:57;;;;;;;10.35;2.30;;;17.70;99.90;;;;;;5121298;27;20929;-73
2022/05/21 11:11:30;;;;;;;9.68;2.28;;;;;;;;;;5092634;28;20457;-77
2022/05/21 11:13:57;;;;;;;7.93;2.58;;;;;;;;;;5097586;28;20435;-74
2022/05/21 11:16:35;;;;;;;8.03;2.20;;;;;;;;;;5122522;27;20421;-79
2022/05/21 11:19:10;;;;;;;8.18;2.03;;;;;;;;;;5111846;27;20418;-81
2022/05/21 11:21:56;;;;;;;8.32;2.22;;;;;;;;;;5121274;27;20415;-80
2022/05/21 11:24:38;;;;;;;12.23;2.57;;;;;;;;;;5099993;28;20500;-80
2022/05/21 11:27:13;;;;;;;9.10;2.30;;;;;;;;;;5115325;27;20424;-80
2022/05/21 11:29:41;;;;;;;10.20;2.55;;;18.10;99.90;;;;;;5105662;27;20798;-80
2022/05/21 11:37:51;;;;;;;8.50;2.30;;;;;;;;;;5105513;28;20470;-80
2022/05/21 11:40:47;;;;;;;7.77;2.53;;;;;;;;;;5114944;28;20420;-80
2022/05/21 11:43:13;;;;;;;7.68;2.35;;;;;;;;;;5071284;28;20438;-80
2022/05/21 11:45:39;;;;;;;7.67;2.47;;;;;;;;;;5082713;28;20421;-81
2022/05/21 11:48:22;;;;;;;8.63;2.50;;;;;;;;;;5096928;28;20426;-81
2022/05/21 11:51:16;;;;;;;8.32;2.40;;;18.20;99.90;;;;;;5095088;28;20830;-81
2022/05/21 11:53:44;;;;;;;10.87;2.83;;;;;;;;;;5089901;28;20417;-80
2022/05/21 11:56:12;;;;;;;8.90;2.58;;;;;;;;;;5094176;28;20413;-81
2022/05/21 11:58:50;;;;;;;7.77;2.07;;;;;;;;;;5066787;28;20429;-81
2022/05/21 12:01:49;;;;;;;10.07;2.50;;;;;;;;;;5111322;27;20631;-81
2022/05/21 12:04:44;;;;;;;6.57;2.40;;;;;;;;;;5049204;28;20452;-79
2022/05/21 12:07:36;;;;;;;8.10;2.25;;;19.70;99.90;;;;;;5089130;28;20797;-80
2022/05/21 12:10:09;;;;;;;7.43;2.30;;;19.50;99.90;;;;;;5093858;28;20424;-79
2022/05/21 12:12:35;;;;;;;7.38;2.10;;;;;;;;;;5118785;27;20422;-81
2022/05/21 12:15:20;;;;;;;8.00;2.27;;;;;;;;;;5096816;28;20460;-80
2022/05/21 12:17:52;;;;;;;15.13;2.15;;;;;;;;;;5108914;28;20444;-79
2022/05/21 12:20:45;;;;;;;7.03;2.07;;;19.10;99.90;;;;;;5096498;27;20501;-79
2022/05/21 12:23:35;;;;;;;6.75;1.88;;;;;;;;;;5131079;27;20433;-78
2022/05/21 12:26:08;;;;;;;8.87;2.33;;;;;;;;;;5115877;27;20645;-78
2022/05/21 12:28:49;;;;;;;8.00;1.92;;;19.40;99.90;;;;;;5111844;28;21036;-78
2022/05/21 12:31:21;;;;;;;8.88;2.38;;;;;;;;;;5138424;28;20460;-80
2022/05/21 12:34:24;;;;;;;7.18;1.67;;;19.10;99.90;;;;;;5077658;28;21046;-80
2022/05/21 12:37:12;;;;;;;6.63;2.20;;;;;;;;;;5082344;28;20489;-80
2022/05/21 12:39:54;;;;;;;6.07;1.90;;;18.60;99.90;;;;;;5104664;28;20614;-80
2022/05/21 12:42:30;;;;;;;8.88;2.13;;;;;;;;;;5114075;28;20523;-79
2022/05/21 12:44:56;;;;;;;7.38;1.83;;;19.20;99.90;;;;;;5110837;28;20418;-80
2022/05/21 12:47:30;;;;;;;5.90;1.73;;;;;;;;;;5115323;28;20423;-80
2022/05/21 12:49:57;;;;;;;6.05;1.70;;;;;;;;;;5117601;27;20426;-80
2022/05/21 12:52:44;;;;;;;7.33;1.83;;;19.40;99.90;;;;;;5123541;27;20429;-80
2022/05/21 12:55:16;;;;;;;5.57;1.60;;;;;;;;;;5110233;28;20499;-80
2022/05/21 12:57:43;;;;;;;6.47;1.88;;;;;;;;;;5094625;27;20423;-79
2022/05/21 13:00:10;;;;;;;6.97;2.13;;;;;;;;;;5109424;27;20425;-79
2022/05/21 13:02:44;;;;;;;7.93;2.15;;;;;;;;;;5100296;28;20420;-80
2022/05/21 13:05:17;;;;;;;7.43;2.10;;;;;;;;;;5121994;28;20416;-77
2022/05/21 13:07:44;;;;;;;6.47;1.77;;;;;;;;;;5111009;27;20473;-78
2022/05/21 13:10:26;;;;;;;5.55;1.77;;;18.50;99.90;;;;;;5091195;27;20421;-78
2022/05/21 13:13:03;;;;;;;8.73;2.25;;;;;;;;;;5107905;28;20427;-78
2022/05/21 13:15:33;;;;;;;6.15;1.75;;;19.10;99.90;;;;;;5109188;27;20926;-78
2022/05/21 13:18:06;;;;;;;7.53;2.05;;;;;;;;;;5098831;28;20427;-79
2022/05/21 13:20:40;;;;;;;5.07;1.80;;;19.30;99.90;;;;;;5100245;27;20457;-77
2022/05/21 13:23:12;;;;;;;9.00;2.33;;;;;;;;;;5108684;27;20414;-78
2022/05/21 13:25:39;;;;;;;8.13;2.22;;;;;;;;;;5103456;28;20434;-79
2022/05/21 13:28:20;;;;;;;9.90;2.58;;;19.50;99.90;;;;;;5104638;27;20420;-77
2022/05/21 13:30:47;;;;;;;9.98;2.35;;;;;;;;;;5117517;27;20819;-79
2022/05/21 13:33:28;;;;;;;7.30;2.20;;;19.70;99.90;;;;;;5131496;27;20407;-81
2022/05/21 13:35:58;;;;;;;7.30;2.55;;;19.80;99.90;;;;;;5112857;27;20929;-79
2022/05/21 13:38:34;;;;;;;8.32;2.45;;;19.50;99.90;;;;;;5106740;28;20437;-80
2022/05/21 13:41:05;;;;;;;8.23;2.30;;;19.20;99.90;;;;;;5109529;27;20440;-79
2022/05/21 13:43:37;;;;;;;9.77;2.47;;;;;;;;;;5090626;28;20426;-80
2022/05/21 13:46:03;;;;;;;8.23;2.38;;;;;;;;;;5109748;28;20440;-80
2022/05/21 13:48:39;;;;;;;10.88;2.83;;;;;;;;;;5121883;27;20415;-78
2022/05/21 13:51:05;;;;;;;8.77;2.20;;;;;;;;;;5104358;28;20420;-79
2022/05/21 13:53:33;;;;;;;11.32;2.95;;;;;;;;;;5114950;27;20426;-79
2022/05/21 13:56:01;;;;;;;11.20;2.83;;;;;;;;;;5111038;27;20420;-79
2022/05/21 13:58:29;;;;;;;7.68;2.38;;;;;;;;;;5112391;28;20437;-78
2022/05/21 14:00:55;;;;;;;10.38;2.72;;;;;;;;;;5131219;27;20501;-80
2022/05/21 14:03:29;;;;;;;10.82;3.20;;;;;;;;;;5103268;28;20554;-78
2022/05/21 14:06:02;;;;;;;10.38;2.70;;;18.50;99.90;;;;;;5087666;27;20422;-79
2022/05/21 14:08:37;;;;;;;10.85;2.50;;;;;;;;;;5113843;28;20529;-79
2022/05/21 14:11:04;;;;;;;8.75;2.38;;;;;;;;;;5099761;28;20829;-79
2022/05/21 14:13:34;;;;;;;10.20;2.65;;;;;;;;;;5107363;27;20419;-80
2022/05/21 14:16:02;;;;;;;11.87;3.00;;;;;;;;;;5091805;28;20421;-79
2022/05/21 14:18:30;;;;;;;7.13;2.50;;;;;;;;;;5106422;27;21129;-81
2022/05/21 14:20:58;;;;;;;11.75;2.90;;;;;;;;;;5121359;27;20430;-80
2022/05/21 14:23:33;;;;;;;9.18;2.72;;;;;;;;;;5101715;28;20426;-80
2022/05/21 14:26:19;;;;;;;12.05;3.00;;;;;;;;;;5124107;27;20441;-78
2022/05/21 14:28:45;;;;;;;10.20;2.80;;;;;;;;;;5104689;27;20419;-79
2022/05/21 14:31:24;;;;;;;11.07;2.90;;;;;;;;;;5081874;28;20456;-79
2022/05/21 14:33:54;;;;;;;11.05;2.83;;;;;;;;;;5082778;28;20424;-80
2022/05/21 14:36:38;;;;;;;9.23;2.55;;;;;;;;;;5108683;27;20498;-77
2022/05/21 14:39:04;;;;;;;10.70;2.97;;;;;;;;;;5125181;27;20430;-79
2022/05/21 14:41:33;;;;;;;10.20;3.08;;;;;;;;;;5113576;27;20417;-81
2022/05/21 14:44:04;;;;;;;10.37;2.60;;;;;;;;;;5120326;27;20428;-82
2022/05/21 14:49:14;;;;;;;8.40;2.33;;;;;;;;;;5103139;27;20418;-82
2022/05/21 14:54:32;;;;;;;7.32;2.47;;;;;;;;;;5133257;27;20422;-81
2022/05/21 14:56:59;;;;;;;11.27;2.90;;;;;;;;;;5118554;27;20425;-82
2022/05/21 14:59:25;;;;;;;9.07;2.53;;;;;;;;;;5103142;27;20414;-82
2022/05/21 15:01:53;;;;;;;9.38;3.00;;;;;;;;;;5122002;27;20418;-82
2022/05/21 15:04:19;;;;;;;12.27;3.30;;;;;;;;;;5120999;27;20448;-82